Time;durP1;ratioP1;P1;durP2;ratioP2;P2;SDS_P1;SDS_P2;PMS_P1;PMS_P2;Temp;Humidity;BMP_temperature;BMP_pressure;BME280_temperature;BME280_humidity;BME280_pressure;Samples;Min_cycle;Max_cycle;Signal;HPM_P1;HPM_P2
2023/07/12 00:01:19;;;;;;;3.00;2.50;;;;;;;;;;5031686;28;20294;-75
2023/07/12 00:03:45;;;;;;;2.70;2.43;;;;;;;;;;5030618;28;20277;-73
2023/07/12 00:06:15;;;;;;;5.40;3.20;;;;;;;;;;5034492;28;20225;-73
2023/07/12 00:08:41;;;;;;;5.90;3.03;;;;;;;;;;5037013;28;20210;-73
2023/07/12 00:11:14;;;;;;;3.73;2.80;;;;;;;;;;5033079;28;20681;-74
2023/07/12 00:13:41;;;;;;;3.70;2.70;;;;;;;;;;5031317;28;20289;-74
2023/07/12 00:16:17;;;;;;;3.00;2.70;;;;;;;;;;5039459;28;20185;-73
2023/07/12 00:18:43;;;;;;;4.00;2.60;;;;;;;;;;5034810;28;20192;-74
2023/07/12 00:21:11;;;;;;;3.40;2.67;;;;;;;;;;5045925;28;20285;-73
2023/07/12 00:23:38;;;;;;;4.13;2.87;;;;;;;;;;5047075;28;20222;-74
2023/07/12 00:26:21;;;;;;;6.30;2.70;;;;;;;;;;5031368;28;20188;-73
2023/07/12 00:28:47;;;;;;;4.70;3.00;;;;;;;;;;5034712;28;20189;-74
2023/07/12 00:31:13;;;;;;;4.30;2.70;;;;;;;;;;5049668;28;20585;-73
2023/07/12 00:33:39;;;;;;;2.60;2.40;;;;;;;;;;5050792;28;20289;-73
2023/07/12 00:36:05;;;;;;;4.73;2.90;;;;;;;;;;5049870;28;20174;-73
2023/07/12 00:38:32;;;;;;;5.70;3.20;;;;;;;;;;5050098;28;20181;-73
2023/07/12 00:41:03;;;;;;;6.53;3.00;;;;;;;;;;5049851;28;20585;-74
2023/07/12 00:43:40;;;;;;;3.73;2.90;;;;;;;;;;5049334;28;20209;-73
2023/07/12 00:46:19;;;;;;;4.20;2.90;;;;;;;;;;5051099;28;20169;-73
2023/07/12 00:48:46;;;;;;;4.50;2.90;;;;;;;;;;5033427;28;20181;-72
2023/07/12 00:51:27;;;;;;;5.07;3.10;;;;;;;;;;5033276;28;20676;-73
2023/07/12 00:53:57;;;;;;;6.37;3.00;;;;;;;;;;5050767;28;20258;-74
2023/07/12 00:56:24;;;;;;;5.07;3.07;;;;;;;;;;5050680;28;20181;-73
2023/07/12 00:58:52;;;;;;;3.97;2.80;;;;;;;;;;5051062;28;20227;-73
2023/07/12 01:01:19;;;;;;;5.30;2.80;;;;;;;;;;5038503;28;20277;-74
2023/07/12 01:03:46;;;;;;;4.30;2.80;;;;;;;;;;5044920;28;20202;-73
2023/07/12 01:06:13;;;;;;;4.33;2.60;;;;;;;;;;5044993;28;20200;-73
2023/07/12 01:08:41;;;;;;;3.90;2.97;;;;;;;;;;5050524;28;20181;-73
2023/07/12 01:11:08;;;;;;;4.70;2.83;;;;;;;;;;5044154;28;20567;-73
2023/07/12 01:13:35;;;;;;;4.47;2.87;;;;;;;;;;5033198;28;20206;-74
2023/07/12 01:16:03;;;;;;;3.00;2.67;;;;;;;;;;5046811;28;20196;-76
2023/07/12 01:18:29;;;;;;;4.13;3.07;;;;;;;;;;5052831;28;20178;-73
2023/07/12 01:21:14;;;;;;;3.77;2.60;;;;;;;;;;5033516;28;21002;-74
2023/07/12 01:23:41;;;;;;;3.53;2.90;;;;;;;;;;5034553;28;20213;-74
2023/07/12 01:26:25;;;;;;;3.97;3.07;;;;;;;;;;5041197;28;20517;-74
2023/07/12 01:28:53;;;;;;;4.07;2.67;;;;;;;;;;5054573;28;20598;-74
2023/07/12 01:31:19;;;;;;;3.50;2.90;;;;;;;;;;5041709;28;20243;-74
2023/07/12 01:33:46;;;;;;;3.73;2.70;;;;;;;;;;5034328;28;20280;-73
2023/07/12 01:36:12;;;;;;;4.83;2.90;;;;;;;;;;5050608;28;20185;-74
2023/07/12 01:38:38;;;;;;;3.60;3.10;;;;;;;;;;5054467;28;20174;-74
2023/07/12 01:41:04;;;;;;;5.60;3.10;;;;;;;;;;5053140;28;20217;-75
2023/07/12 01:43:31;;;;;;;4.50;3.00;;;;;;;;;;5052736;28;20588;-73
2023/07/12 01:45:57;;;;;;;4.53;3.10;;;;;;;;;;5054460;28;20236;-73
2023/07/12 01:48:23;;;;;;;4.23;3.07;;;;;;;;;;5054038;28;20181;-74
2023/07/12 01:50:51;;;;;;;4.50;2.63;;;;;;;;;;5047720;28;20188;-75
2023/07/12 01:53:17;;;;;;;5.47;3.20;;;;;;;;;;5037955;28;20244;-74
2023/07/12 01:55:44;;;;;;;3.83;2.70;;;;;;;;;;5034618;28;20182;-74
2023/07/12 01:58:11;;;;;;;4.10;3.03;;;;;;;;;;5043081;28;20174;-73
2023/07/12 02:00:37;;;;;;;3.70;2.80;;;;;;;;;;5052662;28;20197;-73
2023/07/12 02:03:03;;;;;;;4.47;2.90;;;;;;;;;;5038528;28;20174;-73
2023/07/12 02:05:30;;;;;;;5.00;3.23;;;;;;;;;;5034337;28;20226;-73
2023/07/12 02:07:56;;;;;;;4.43;3.10;;;;;;;;;;5038691;28;20245;-73
2023/07/12 02:10:24;;;;;;;5.20;3.00;;;;;;;;;;5033866;28;20186;-72
2023/07/12 02:12:51;;;;;;;4.73;2.83;;;;;;;;;;5032327;28;20218;-73
2023/07/12 02:15:17;;;;;;;4.83;2.80;;;;;;;;;;5033666;28;20674;-73
2023/07/12 02:17:44;;;;;;;3.17;2.87;;;;;;;;;;5037095;28;20315;-76
2023/07/12 02:20:12;;;;;;;3.47;2.80;;;;;;;;;;5035574;28;20217;-75
2023/07/12 02:22:41;;;;;;;4.07;2.70;;;;;;;;;;5034133;28;20220;-74
2023/07/12 02:25:08;;;;;;;4.10;2.70;;;;;;;;;;5033550;28;20309;-75
2023/07/12 02:27:34;;;;;;;4.90;2.73;;;;;;;;;;5049992;28;20235;-73
2023/07/12 02:30:01;;;;;;;3.97;2.80;;;;;;;;;;5052746;28;20185;-74
2023/07/12 02:32:28;;;;;;;4.30;2.73;;;;;;;;;;5042826;28;20257;-73
2023/07/12 02:34:54;;;;;;;7.43;3.30;;;;;;;;;;5039726;28;20202;-73
2023/07/12 02:37:20;;;;;;;8.43;3.30;;;;;;;;;;5043255;28;20209;-73
2023/07/12 02:39:46;;;;;;;5.57;2.93;;;;;;;;;;5033124;28;20206;-73
2023/07/12 02:42:18;;;;;;;7.23;3.10;;;;;;;;;;5040435;28;20536;-74
2023/07/12 02:44:44;;;;;;;5.93;2.87;;;;;;;;;;5053160;28;20197;-74
2023/07/12 02:47:11;;;;;;;6.03;2.90;;;;;;;;;;5037646;28;20182;-74
2023/07/12 02:49:38;;;;;;;6.70;2.70;;;;;;;;;;5033418;28;20179;-73
2023/07/12 02:52:05;;;;;;;6.47;2.90;;;;;;;;;;5032576;28;20182;-73
2023/07/12 02:54:31;;;;;;;4.33;2.70;;;;;;;;;;5034177;28;20297;-73
2023/07/12 02:56:58;;;;;;;4.63;3.07;;;;;;;;;;5035090;28;20185;-73
2023/07/12 02:59:24;;;;;;;6.17;2.90;;;;;;;;;;5036582;28;20657;-73
2023/07/12 03:01:50;;;;;;;4.10;2.87;;;;;;;;;;5041922;28;20186;-73
2023/07/12 03:04:17;;;;;;;3.67;2.53;;;;;;;;;;5042386;28;20202;-73
2023/07/12 03:06:43;;;;;;;5.00;2.77;;;;;;;;;;5050768;28;20700;-73
2023/07/12 03:09:09;;;;;;;5.13;2.80;;;;;;;;;;5052921;28;20185;-75
2023/07/12 03:11:36;;;;;;;5.27;2.77;;;;;;;;;;5049802;28;20269;-73
2023/07/12 03:14:02;;;;;;;5.63;3.07;;;;;;;;;;5032297;28;20236;-73
2023/07/12 03:16:28;;;;;;;8.20;3.30;;;;;;;;;;5032502;28;20205;-73
2023/07/12 03:18:54;;;;;;;9.40;3.23;;;;;;;;;;5032620;28;20266;-73
2023/07/12 03:21:20;;;;;;;14.10;4.00;;;;;;;;;;5032461;28;20203;-73
2023/07/12 03:23:46;;;;;;;9.43;3.27;;;;;;;;;;5046402;28;20656;-73
2023/07/12 03:26:13;;;;;;;8.97;3.67;;;;;;;;;;5032693;28;20179;-73
2023/07/12 03:28:39;;;;;;;9.87;4.07;;;;;;;;;;5035231;28;20181;-73
2023/07/12 03:31:06;;;;;;;4.10;3.10;;;;;;;;;;5045227;28;20187;-73
2023/07/12 03:33:33;;;;;;;4.33;2.83;;;;;;;;;;5041995;28;20209;-73
2023/07/12 03:35:59;;;;;;;4.40;2.80;;;;;;;;;;5039166;28;20769;-73
2023/07/12 03:38:25;;;;;;;5.40;3.10;;;;;;;;;;5032038;28;20180;-73
2023/07/12 03:40:52;;;;;;;4.27;3.10;;;;;;;;;;5032220;28;20283;-73
2023/07/12 03:43:18;;;;;;;4.23;2.80;;;;;;;;;;5030641;28;20194;-74
2023/07/12 03:45:45;;;;;;;5.80;3.10;;;;;;;;;;5032146;28;20205;-73
2023/07/12 03:48:11;;;;;;;4.60;2.83;;;;;;;;;;5031948;28;20661;-73
2023/07/12 03:50:43;;;;;;;5.17;2.63;;;;;;;;;;5032174;28;20304;-73
2023/07/12 03:53:10;;;;;;;4.53;2.80;;;;;;;;;;5031715;28;20179;-73
2023/07/12 03:55:40;;;;;;;6.83;3.30;;;;;;;;;;5031955;28;20186;-73
2023/07/12 03:58:06;;;;;;;4.60;2.80;;;;;;;;;;5031633;28;20265;-73
2023/07/12 04:00:33;;;;;;;6.93;3.10;;;;;;;;;;5031842;28;20674;-75
2023/07/12 04:02:59;;;;;;;4.53;3.10;;;;;;;;;;5031353;28;20174;-75
2023/07/12 04:05:25;;;;;;;5.90;3.17;;;;;;;;;;5031743;28;20190;-74
2023/07/12 04:07:52;;;;;;;4.27;3.20;;;;;;;;;;5048244;28;20718;-73
2023/07/12 04:10:18;;;;;;;4.40;2.93;;;;;;;;;;5041550;28;20177;-73
2023/07/12 04:12:45;;;;;;;5.67;3.03;;;;;;;;;;5051239;28;20174;-73
2023/07/12 04:15:11;;;;;;;6.27;3.30;;;;;;;;;;5051504;28;20212;-73
2023/07/12 04:17:37;;;;;;;6.43;3.40;;;;;;;;;;5051478;28;20596;-73
2023/07/12 04:20:05;;;;;;;7.30;3.60;;;;;;;;;;5031802;28;20213;-74
2023/07/12 04:22:31;;;;;;;4.67;3.40;;;;;;;;;;5031213;28;20584;-74
2023/07/12 04:24:58;;;;;;;4.50;3.30;;;;;;;;;;5042847;28;20202;-75
2023/07/12 04:27:24;;;;;;;5.60;3.47;;;;;;;;;;5044711;28;20677;-73
2023/07/12 04:29:50;;;;;;;5.47;3.83;;;;;;;;;;5041174;28;20269;-73
2023/07/12 04:32:16;;;;;;;6.90;4.20;;;;;;;;;;5031381;28;20248;-73
2023/07/12 04:34:42;;;;;;;6.60;4.20;;;;;;;;;;5031202;28;20202;-73
2023/07/12 04:37:09;;;;;;;5.90;4.00;;;;;;;;;;5039582;28;20273;-73
2023/07/12 04:39:35;;;;;;;5.03;3.87;;;;;;;;;;5035304;28;20201;-73
2023/07/12 04:42:01;;;;;;;6.70;3.90;;;;;;;;;;5043315;28;20600;-73
2023/07/12 04:44:27;;;;;;;7.43;4.00;;;;;;;;;;5041236;28;20213;-73
2023/07/12 04:46:53;;;;;;;7.87;4.07;;;;;;;;;;5034275;28;20206;-73
2023/07/12 04:49:19;;;;;;;5.57;3.50;;;;;;;;;;5030001;28;20574;-74
2023/07/12 04:51:45;;;;;;;7.90;4.00;;;;;;;;;;5038209;28;20179;-77
2023/07/12 04:54:11;;;;;;;8.73;4.00;;;;;;;;;;5030705;28;20238;-73
2023/07/12 04:56:38;;;;;;;7.30;4.20;;;;;;;;;;5029451;28;20185;-77
2023/07/12 04:59:04;;;;;;;6.17;4.33;;;;;;;;;;5029464;28;20229;-77
2023/07/12 05:01:31;;;;;;;8.33;4.30;;;;;;;;;;5029531;28;20173;-76
2023/07/12 05:03:57;;;;;;;5.03;4.30;;;;;;;;;;5029662;28;20562;-77
2023/07/12 05:06:23;;;;;;;5.57;3.87;;;;;;;;;;5030140;28;20178;-77
2023/07/12 05:08:49;;;;;;;8.00;4.30;;;;;;;;;;5029607;28;20224;-77
2023/07/12 05:11:16;;;;;;;8.53;4.70;;;;;;;;;;5030468;28;20185;-76
2023/07/12 05:13:42;;;;;;;8.37;4.37;;;;;;;;;;5030517;28;20609;-72
2023/07/12 05:16:08;;;;;;;5.67;4.37;;;;;;;;;;5030856;28;20218;-77
2023/07/12 05:18:34;;;;;;;5.63;4.37;;;;;;;;;;5030238;28;20190;-71
2023/07/12 05:21:00;;;;;;;8.53;4.40;;;;;;;;;;5037301;28;20310;-71
2023/07/12 05:23:26;;;;;;;7.03;4.30;;;;;;;;;;5045161;28;20181;-71
2023/07/12 05:25:53;;;;;;;8.97;4.50;;;;;;;;;;5050176;28;20506;-71
2023/07/12 05:28:20;;;;;;;5.50;4.53;;;;;;;;;;5050247;28;20170;-71
2023/07/12 05:30:46;;;;;;;8.50;4.30;;;;;;;;;;5050283;28;20182;-71
2023/07/12 05:33:12;;;;;;;8.23;4.30;;;;;;;;;;5049934;28;20532;-71
2023/07/12 05:35:39;;;;;;;9.90;4.90;;;;;;;;;;5050432;28;20174;-71
2023/07/12 05:38:05;;;;;;;6.23;4.33;;;;;;;;;;5048858;28;20217;-71
2023/07/12 05:40:31;;;;;;;7.60;4.83;;;;;;;;;;5049079;28;20272;-71
2023/07/12 05:42:57;;;;;;;7.10;4.53;;;;;;;;;;5035322;28;20179;-71
2023/07/12 05:45:23;;;;;;;4.83;4.03;;;;;;;;;;5030445;28;20616;-71
2023/07/12 05:47:50;;;;;;;11.40;4.73;;;;;;;;;;5046240;28;20204;-71
2023/07/12 05:50:17;;;;;;;8.00;4.97;;;;;;;;;;5050331;28;20551;-72
2023/07/12 05:52:43;;;;;;;6.37;4.40;;;;;;;;;;5048262;28;20263;-72
2023/07/12 05:55:10;;;;;;;4.83;4.33;;;;;;;;;;5050161;28;20194;-71
2023/07/12 05:57:36;;;;;;;9.43;5.03;;;;;;;;;;5053827;28;20210;-71
2023/07/12 06:00:03;;;;;;;8.97;4.60;;;;;;;;;;5053854;28;20292;-71
2023/07/12 06:02:31;;;;;;;6.63;4.50;;;;;;;;;;5051528;28;20649;-71
2023/07/12 06:04:57;;;;;;;8.23;4.77;;;;;;;;;;5046830;28;20206;-71
2023/07/12 06:07:24;;;;;;;7.57;4.90;;;;;;;;;;5047273;28;20189;-71
2023/07/12 06:09:50;;;;;;;9.90;5.17;;;;;;;;;;5053822;28;20273;-71
2023/07/12 06:12:16;;;;;;;8.07;4.77;;;;;;;;;;5053229;28;20221;-71
2023/07/12 06:14:42;;;;;;;7.83;4.57;;;;;;;;;;5053742;28;20254;-71
2023/07/12 06:17:08;;;;;;;7.53;4.77;;;;;;;;;;5053576;28;20185;-71
2023/07/12 06:19:34;;;;;;;8.83;5.27;;;;;;;;;;5042141;28;20206;-71
2023/07/12 06:22:00;;;;;;;7.70;4.80;;;;;;;;;;5041995;28;20189;-71
2023/07/12 06:24:26;;;;;;;9.40;5.13;;;;;;;;;;5039175;28;20199;-71
2023/07/12 06:26:53;;;;;;;8.67;5.33;;;;;;;;;;5035558;28;20197;-71
2023/07/12 06:29:19;;;;;;;8.10;4.87;;;;;;;;;;5052708;28;20200;-71
2023/07/12 06:31:45;;;;;;;7.87;4.90;;;;;;;;;;5053079;28;20178;-70
2023/07/12 06:34:11;;;;;;;7.03;4.60;;;;;;;;;;5051819;28;20225;-71
2023/07/12 06:36:37;;;;;;;7.37;4.50;;;;;;;;;;5047562;28;20834;-72
2023/07/12 06:39:03;;;;;;;7.70;4.83;;;;;;;;;;5039760;28;20183;-72
2023/07/12 06:41:30;;;;;;;9.10;5.07;;;;;;;;;;5038417;28;20206;-72
2023/07/12 06:43:56;;;;;;;7.93;5.10;;;;;;;;;;5044837;28;20946;-72
2023/07/12 06:46:23;;;;;;;7.67;5.03;;;;;;;;;;5043208;28;20185;-71
2023/07/12 06:48:49;;;;;;;6.87;4.73;;;;;;;;;;5051017;28;20178;-71
2023/07/12 06:51:15;;;;;;;6.60;5.17;;;;;;;;;;5036216;28;20178;-71
2023/07/12 06:53:41;;;;;;;6.57;5.10;;;;;;;;;;5052229;28;20218;-71
2023/07/12 06:56:07;;;;;;;8.20;5.23;;;;;;;;;;5052474;28;20178;-71
2023/07/12 06:58:33;;;;;;;9.37;5.20;;;;;;;;;;5049169;28;20266;-71
2023/07/12 07:01:00;;;;;;;8.27;5.20;;;;;;;;;;5052884;28;20237;-71
2023/07/12 07:03:26;;;;;;;7.90;5.50;;;;;;;;;;5048695;28;20559;-71
2023/07/12 07:05:53;;;;;;;7.03;5.13;;;;;;;;;;5047542;28;20186;-72
2023/07/12 07:08:20;;;;;;;9.13;4.70;;;;;;;;;;5049652;28;20209;-70
2023/07/12 07:10:50;;;;;;;8.30;4.70;;;;;;;;;;5050197;28;20178;-71
2023/07/12 07:13:16;;;;;;;9.20;5.60;;;;;;;;;;5050822;28;20170;-71
2023/07/12 07:15:44;;;;;;;5.67;5.07;;;;;;;;;;5040877;28;20719;-71
2023/07/12 07:18:10;;;;;;;8.67;5.50;;;;;;;;;;5031987;28;20197;-71
2023/07/12 07:20:39;;;;;;;9.93;5.60;;;;;;;;;;5032966;28;20770;-71
2023/07/12 07:23:05;;;;;;;7.80;5.20;;;;;;;;;;5032664;28;20256;-73
2023/07/12 07:25:31;;;;;;;8.67;5.67;;;;;;;;;;5041969;28;20738;-73
2023/07/12 07:27:57;;;;;;;8.70;6.27;;;;;;;;;;5052408;28;20174;-74
2023/07/12 07:30:23;;;;;;;9.87;6.60;;;;;;;;;;5033322;28;20207;-73
2023/07/12 07:32:52;;;;;;;10.40;6.17;;;;;;;;;;5044189;28;20175;-71
2023/07/12 07:35:18;;;;;;;7.50;6.00;;;;;;;;;;5030910;28;20218;-74
2023/07/12 07:37:46;;;;;;;7.30;5.90;;;;;;;;;;5030538;28;20222;-71
2023/07/12 07:40:12;;;;;;;10.93;7.10;;;;;;;;;;5032197;28;20314;-71
2023/07/12 07:42:38;;;;;;;9.83;6.90;;;;;;;;;;5032102;28;20673;-71
2023/07/12 07:45:05;;;;;;;8.67;6.20;;;;;;;;;;5032563;28;20214;-71
2023/07/12 07:47:31;;;;;;;11.87;9.30;;;;;;;;;;5031252;28;20193;-70
2023/07/12 07:49:57;;;;;;;11.13;9.63;;;;;;;;;;5032486;28;20696;-71
2023/07/12 07:52:23;;;;;;;11.33;10.17;;;;;;;;;;5032420;28;20183;-71
2023/07/12 07:54:49;;;;;;;12.53;10.30;;;;;;;;;;5032239;28;20199;-71
2023/07/12 07:57:16;;;;;;;15.47;10.53;;;;;;;;;;5032063;28;20270;-74
2023/07/12 07:59:42;;;;;;;15.27;10.47;;;;;;;;;;5032340;28;20202;-71
2023/07/12 08:02:11;;;;;;;11.00;9.93;;;;;;;;;;5032216;28;20174;-75
2023/07/12 08:04:41;;;;;;;10.67;9.67;;;;;;;;;;5031289;28;20292;-74
2023/07/12 08:07:10;;;;;;;14.37;9.53;;;;;;;;;;5030541;28;20202;-71
2023/07/12 08:09:37;;;;;;;10.43;8.73;;;;;;;;;;5031834;28;20704;-71
2023/07/12 08:12:03;;;;;;;14.07;9.63;;;;;;;;;;5031817;28;20181;-75
2023/07/12 08:14:30;;;;;;;10.03;8.87;;;;;;;;;;5031520;28;20199;-71
2023/07/12 08:16:56;;;;;;;12.87;10.30;;;;;;;;;;5031555;28;20175;-71
2023/07/12 08:19:22;;;;;;;11.57;10.37;;;;;;;;;;5031512;28;20265;-71
2023/07/12 08:21:49;;;;;;;11.90;9.33;;;;;;;;;;5031547;28;20689;-74
2023/07/12 08:24:15;;;;;;;11.23;9.53;;;;;;;;;;5031257;28;20202;-72
2023/07/12 08:26:42;;;;;;;11.97;8.47;;;;;;;;;;5031415;28;20176;-71
2023/07/12 08:29:08;;;;;;;9.83;8.83;;;;;;;;;;5032046;28;20594;-71
2023/07/12 08:31:34;;;;;;;10.47;9.20;;;;;;;;;;5031746;28;20192;-71
2023/07/12 08:34:00;;;;;;;9.93;8.97;;;;;;;;;;5031237;28;20204;-71
2023/07/12 08:36:26;;;;;;;9.47;8.50;;;;;;;;;;5031824;28;20281;-71
2023/07/12 08:38:53;;;;;;;10.77;7.83;;;;;;;;;;5031705;28;20667;-71
2023/07/12 08:41:30;;;;;;;7.60;6.90;;;;;;;;;;5031515;28;20191;-71
2023/07/12 08:43:56;;;;;;;7.70;6.40;;;;;;;;;;5031054;28;20206;-71
2023/07/12 08:46:26;;;;;;;10.00;6.40;;;;;;;;;;5031278;28;20269;-72
2023/07/12 08:48:54;;;;;;;8.67;6.73;;;;;;;;;;5031560;28;20232;-71
2023/07/12 08:51:26;;;;;;;8.57;5.80;;;;;;;;;;5031440;28;20192;-71
2023/07/12 08:53:53;;;;;;;9.77;6.13;;;;;;;;;;5031173;28;20674;-71
2023/07/12 08:56:19;;;;;;;6.93;6.23;;;;;;;;;;5031214;28;20193;-71
2023/07/12 08:58:47;;;;;;;7.77;5.83;;;;;;;;;;5031392;28;20206;-71
2023/07/12 09:01:15;;;;;;;7.90;5.70;;;;;;;;;;5031438;28;20739;-71
2023/07/12 09:03:41;;;;;;;8.10;6.37;;;;;;;;;;5030289;28;20212;-71
2023/07/12 09:06:12;;;;;;;8.30;6.90;;;;;;;;;;5031144;28;20174;-71
2023/07/12 09:08:39;;;;;;;8.37;6.33;;;;;;;;;;5030070;28;20178;-74
2023/07/12 09:11:12;;;;;;;7.27;6.43;;;;;;;;;;5031131;28;20209;-71
2023/07/12 09:13:40;;;;;;;8.30;6.10;;;;;;;;;;5030908;28;20207;-72
2023/07/12 09:16:23;;;;;;;7.47;5.17;;;;;;;;;;5031219;28;20182;-71
2023/07/12 09:18:52;;;;;;;7.40;5.67;;;;;;;;;;5030836;28;20175;-72
2023/07/12 09:21:22;;;;;;;6.77;5.57;;;;;;;;;;5031020;28;20209;-71
2023/07/12 09:23:49;;;;;;;6.10;5.50;;;;;;;;;;5030691;28;20544;-75
2023/07/12 09:26:17;;;;;;;6.00;4.70;;;;;;;;;;5030931;28;20265;-75
2023/07/12 09:28:43;;;;;;;6.03;5.03;;;;;;;;;;5031160;28;20556;-71
2023/07/12 09:31:12;;;;;;;5.87;5.27;;;;;;;;;;5032373;28;20182;-71
2023/07/12 09:33:38;;;;;;;8.27;5.40;;;;;;;;;;5034512;28;20305;-71
2023/07/12 09:36:05;;;;;;;7.10;5.30;;;;;;;;;;5034740;28;20178;-72
2023/07/12 09:38:35;;;;;;;5.97;5.27;;;;;;;;;;5034767;28;20182;-75
2023/07/12 09:41:08;;;;;;;5.53;5.00;;;;;;;;;;5034731;28;20232;-73
2023/07/12 09:43:37;;;;;;;7.63;5.10;;;;;;;;;;5034415;28;20210;-72
2023/07/12 09:46:16;;;;;;;6.20;5.10;;;;;;;;;;5034619;28;20202;-77
2023/07/12 09:48:45;;;;;;;5.67;4.83;;;;;;;;;;5034596;28;20178;-72
2023/07/12 09:51:21;;;;;;;5.57;5.07;;;;;;;;;;5034605;28;20193;-74
2023/07/12 09:53:49;;;;;;;7.67;5.10;;;;;;;;;;5034125;28;20194;-72
2023/07/12 09:56:15;;;;;;;5.77;5.03;;;;;;;;;;5034459;28;20182;-75
2023/07/12 09:58:48;;;;;;;6.57;4.83;;;;;;;;;;5034428;28;20185;-75
2023/07/12 10:01:33;;;;;;;7.97;4.60;;;;;;;;;;5034508;28;20195;-71
2023/07/12 10:04:04;;;;;;;6.47;4.43;;;;;;;;;;5033573;28;20210;-72
2023/07/12 10:06:37;;;;;;;4.77;4.00;;;;;;;;;;5034193;28;20266;-72
2023/07/12 10:09:15;;;;;;;4.80;4.37;;;;;;;;;;5033955;28;20208;-72
2023/07/12 10:11:53;;;;;;;5.97;4.30;;;;;;;;;;5033290;28;20178;-72
2023/07/12 10:14:21;;;;;;;4.93;4.20;;;;;;;;;;5033576;28;20604;-72
2023/07/12 10:16:49;;;;;;;6.40;4.60;;;;;;;;;;5034176;28;20230;-72
2023/07/12 10:19:20;;;;;;;5.37;4.90;;;;;;;;;;5034109;28;20247;-72
2023/07/12 10:21:46;;;;;;;8.80;5.70;;;;;;;;;;5034203;28;20514;-72
2023/07/12 10:24:17;;;;;;;6.13;5.60;;;;;;;;;;5033616;28;20639;-77
2023/07/12 10:26:46;;;;;;;6.20;5.60;;;;;;;;;;5033928;28;20166;-72
2023/07/12 10:29:20;;;;;;;5.87;5.37;;;;;;;;;;5033772;28;20266;-72
2023/07/12 10:31:57;;;;;;;5.53;5.03;;;;;;;;;;5034006;28;20229;-72
2023/07/12 10:34:29;;;;;;;5.73;5.07;;;;;;;;;;5032216;28;20213;-75
2023/07/12 10:36:56;;;;;;;5.70;5.10;;;;;;;;;;5033772;28;20182;-75
2023/07/12 10:39:27;;;;;;;6.60;5.00;;;;;;;;;;5033585;28;20593;-72
2023/07/12 10:42:03;;;;;;;5.57;5.07;;;;;;;;;;5033547;28;20174;-72
2023/07/12 10:44:35;;;;;;;7.23;5.47;;;;;;;;;;5033200;28;20206;-75
2023/07/12 10:47:05;;;;;;;6.13;5.53;;;;;;;;;;5033397;28;20166;-75
2023/07/12 10:49:41;;;;;;;6.87;5.77;;;;;;;;;;5032398;28;20181;-72
2023/07/12 10:52:10;;;;;;;5.83;5.23;;;;;;;;;;5033628;28;20174;-72
2023/07/12 10:54:36;;;;;;;6.50;5.50;;;;;;;;;;5033078;28;20198;-72
2023/07/12 10:57:21;;;;;;;5.80;5.20;;;;;;;;;;5033347;28;20262;-72
2023/07/12 10:59:47;;;;;;;6.07;5.47;;;;;;;;;;5032312;28;20368;-72
2023/07/12 11:02:21;;;;;;;5.63;5.13;;;;;;;;;;5033473;28;20186;-72
2023/07/12 11:04:48;;;;;;;5.87;5.37;;;;;;;;;;5014279;28;20669;-72
2023/07/12 11:07:15;;;;;;;5.90;5.40;;;;;;;;;;5033205;28;20246;-72
2023/07/12 11:09:45;;;;;;;5.30;4.80;;;;;;;;;;5033237;28;20548;-72
2023/07/12 11:12:12;;;;;;;6.73;4.77;;;;;;;;;;5033275;28;20257;-72
2023/07/12 11:14:39;;;;;;;5.90;5.30;;;;;;;;;;5032717;28;20206;-72
2023/07/12 11:17:11;;;;;;;6.37;5.30;;;;;;;;;;5032859;28;20175;-72
2023/07/12 11:19:40;;;;;;;5.63;5.13;;;;;;;;;;5032950;28;20182;-71
2023/07/12 11:22:23;;;;;;;7.60;4.90;;;;;;;;;;5033135;28;20182;-76
2023/07/12 11:24:49;;;;;;;5.80;5.20;;;;;;;;;;5032675;28;20257;-72
2023/07/12 11:27:33;;;;;;;5.70;5.20;;;;;;;;;;5032934;28;20188;-72
2023/07/12 11:30:08;;;;;;;5.63;5.03;;;;;;;;;;5032923;28;20178;-72
2023/07/12 11:32:38;;;;;;;5.50;4.70;;;;;;;;;;5031598;28;20189;-72
2023/07/12 11:35:12;;;;;;;4.87;4.47;;;;;;;;;;5032451;28;20282;-72
2023/07/12 11:37:41;;;;;;;4.40;4.00;;;;;;;;;;5032928;28;20549;-72
2023/07/12 11:40:19;;;;;;;5.83;5.27;;;;;;;;;;5032633;28;20238;-72
2023/07/12 11:42:45;;;;;;;5.43;4.93;;;;;;;;;;5031124;28;20566;-72
2023/07/12 11:45:13;;;;;;;5.33;4.90;;;;;;;;;;5032409;28;20277;-72
2023/07/12 11:47:41;;;;;;;6.07;4.97;;;;;;;;;;5032518;28;20170;-72
2023/07/12 11:50:10;;;;;;;4.87;4.30;;;;;;;;;;5032477;28;20171;-74
2023/07/12 11:52:36;;;;;;;5.30;4.80;;;;;;;;;;5032589;28;20564;-72
2023/07/12 11:55:05;;;;;;;5.07;4.57;;;;;;;;;;5031113;28;20267;-72
2023/07/12 11:57:38;;;;;;;5.53;4.90;;;;;;;;;;5032258;28;20205;-74
2023/07/12 12:00:25;;;;;;;5.43;4.13;;;;;;;;;;5032102;28;20605;-72
2023/07/12 12:02:52;;;;;;;6.47;4.13;;;;;;;;;;5031262;28;20178;-74
2023/07/12 12:05:21;;;;;;;7.03;3.97;;;;;;;;;;5032038;28;20268;-72
2023/07/12 12:07:48;;;;;;;4.00;3.60;;;;;;;;;;5032174;28;20174;-73
2023/07/12 12:10:21;;;;;;;5.20;3.80;;;;;;;;;;5032089;28;20174;-74
2023/07/12 12:12:48;;;;;;;4.83;3.73;;;;;;;;;;5032317;28;20189;-72
2023/07/12 12:15:32;;;;;;;3.80;3.40;;;;;;;;;;5031763;28;20580;-73
2023/07/12 12:18:05;;;;;;;3.97;3.37;;;;;;;;;;5031979;28;20253;-74
2023/07/12 12:20:33;;;;;;;4.53;3.50;;;;;;;;;;5032039;28;20568;-72
2023/07/12 12:23:26;;;;;;;3.90;3.30;;;;;;;;;;5031702;28;20175;-72
2023/07/12 12:25:53;;;;;;;4.07;3.07;;;;;;;;;;5023530;28;20236;-75
2023/07/12 12:28:25;;;;;;;3.87;2.70;;;;;;;;;;5031784;28;20178;-72
2023/07/12 12:30:58;;;;;;;2.97;2.70;;;;;;;;;;5031856;28;20175;-72
2023/07/12 12:33:26;;;;;;;4.90;2.87;;;;;;;;;;5031522;28;20211;-74
2023/07/12 12:35:58;;;;;;;4.27;2.60;;;;;;;;;;5031658;28;20175;-73
2023/07/12 12:38:28;;;;;;;2.77;2.57;;;;;;;;;;5031726;28;20167;-72
2023/07/12 12:41:14;;;;;;;3.90;2.57;;;;;;;;;;5031643;28;20238;-72
2023/07/12 12:44:05;;;;;;;3.07;2.40;;;;;;;;;;5031037;28;20219;-72
2023/07/12 12:46:31;;;;;;;4.27;2.20;;;;;;;;;;5031554;28;20309;-72
2023/07/12 12:48:57;;;;;;;2.63;2.10;;;;;;;;;;5031725;28;20187;-72
2023/07/12 12:51:24;;;;;;;3.10;2.23;;;;;;;;;;5031408;28;20179;-72
2023/07/12 12:53:50;;;;;;;2.30;2.10;;;;;;;;;;5031160;28;20230;-72
2023/07/12 12:56:17;;;;;;;2.23;2.03;;;;;;;;;;5031399;28;20256;-72
2023/07/12 12:58:43;;;;;;;2.30;2.10;;;;;;;;;;5031603;28;20267;-72
2023/07/12 13:01:11;;;;;;;4.57;1.93;;;;;;;;;;5031470;28;20209;-76
2023/07/12 13:03:37;;;;;;;4.13;2.00;;;;;;;;;;5030208;28;20202;-73
2023/07/12 13:06:04;;;;;;;2.73;1.97;;;;;;;;;;5033037;28;20565;-77
2023/07/12 13:08:31;;;;;;;2.57;1.90;;;;;;;;;;5034408;28;20175;-73
2023/07/12 13:10:57;;;;;;;2.07;1.60;;;;;;;;;;5035356;28;20240;-73
2023/07/12 13:13:23;;;;;;;1.97;1.70;;;;;;;;;;5035064;28;20258;-72
2023/07/12 13:15:49;;;;;;;2.53;1.60;;;;;;;;;;5035519;28;20678;-74
2023/07/12 13:18:16;;;;;;;3.57;1.57;;;;;;;;;;5035446;28;20184;-74
2023/07/12 13:20:43;;;;;;;2.70;1.70;;;;;;;;;;5034077;28;20204;-75
2023/07/12 13:23:09;;;;;;;2.40;1.50;;;;;;;;;;5034930;28;20622;-72
2023/07/12 13:25:38;;;;;;;1.80;1.70;;;;;;;;;;5034930;28;20198;-72
2023/07/12 13:28:06;;;;;;;3.33;2.07;;;;;;;;;;5035191;28;20185;-72
2023/07/12 13:30:37;;;;;;;3.60;1.70;;;;;;;;;;5035258;28;20203;-76
2023/07/12 13:33:09;;;;;;;4.07;1.73;;;;;;;;;;5034921;28;20769;-72
2023/07/12 13:35:35;;;;;;;3.40;1.77;;;;;;;;;;5033800;28;20609;-74
2023/07/12 13:38:01;;;;;;;2.10;1.60;;;;;;;;;;5035023;28;20193;-73
2023/07/12 13:40:27;;;;;;;1.97;1.60;;;;;;;;;;5033906;28;20677;-72
2023/07/12 13:42:55;;;;;;;1.53;1.43;;;;;;;;;;5034444;28;20178;-73
2023/07/12 13:45:21;;;;;;;2.13;1.63;;;;;;;;;;5034565;28;20243;-73
2023/07/12 13:47:47;;;;;;;1.60;1.50;;;;;;;;;;5034863;28;20261;-73
2023/07/12 13:50:15;;;;;;;1.70;1.60;;;;;;;;;;5034975;28;20190;-73
2023/07/12 13:52:41;;;;;;;1.87;1.50;;;;;;;;;;5034843;28;20708;-73
2023/07/12 13:55:09;;;;;;;2.53;1.73;;;;;;;;;;5034309;28;20298;-73
2023/07/12 13:57:35;;;;;;;1.90;1.53;;;;;;;;;;5034524;28;20176;-76
2023/07/12 14:00:03;;;;;;;1.70;1.60;;;;;;;;;;5034564;28;20210;-76
2023/07/12 14:02:34;;;;;;;3.40;1.90;;;;;;;;;;5033962;28;20237;-81
2023/07/12 14:05:01;;;;;;;2.30;1.67;;;;;;;;;;5034099;28;20203;-73
2023/07/12 14:07:29;;;;;;;1.93;1.53;;;;;;;;;;5033498;28;20215;-75
2023/07/12 14:09:55;;;;;;;2.10;1.83;;;;;;;;;;5034524;28;20728;-73
2023/07/12 14:12:25;;;;;;;2.40;1.60;;;;;;;;;;5034324;28;20168;-75
2023/07/12 14:14:52;;;;;;;2.33;1.83;;;;;;;;;;5034179;28;20318;-76
2023/07/12 14:17:19;;;;;;;2.30;1.57;;;;;;;;;;5033621;28;20187;-74
2023/07/12 14:19:46;;;;;;;3.63;1.67;;;;;;;;;;5034452;28;20215;-74
2023/07/12 14:22:17;;;;;;;3.53;1.90;;;;;;;;;;5034594;28;20265;-72
2023/07/12 14:24:44;;;;;;;1.90;1.70;;;;;;;;;;5034195;28;20195;-73
2023/07/12 14:27:14;;;;;;;3.60;1.60;;;;;;;;;;5034096;28;20192;-73
2023/07/12 14:29:41;;;;;;;2.83;1.60;;;;;;;;;;5034250;28;20168;-73
2023/07/12 14:32:17;;;;;;;2.87;1.80;;;;;;;;;;5034067;28;20267;-72
2023/07/12 14:34:43;;;;;;;1.90;1.80;;;;;;;;;;5032649;28;20247;-72
2023/07/12 14:37:14;;;;;;;4.53;1.70;;;;;;;;;;5033705;28;20172;-72
2023/07/12 14:39:40;;;;;;;2.53;1.60;;;;;;;;;;5034307;28;20254;-72
2023/07/12 14:42:09;;;;;;;2.00;1.70;;;;;;;;;;5032124;28;20179;-75
2023/07/12 14:44:35;;;;;;;2.10;1.70;;;;;;;;;;5032072;28;20220;-81
2023/07/12 14:47:04;;;;;;;2.30;1.80;;;;;;;;;;5035716;28;20183;-72
2023/07/12 14:49:30;;;;;;;2.53;1.50;;;;;;;;;;5033601;28;20183;-72